createdAt,value
2019-04-21T00:01:54.112Z,7.90
2019-04-21T00:05:16.463Z,7.80
2019-04-21T00:08:25.856Z,7.80
2019-04-21T00:11:22.493Z,7.70
2019-04-21T00:14:20.918Z,7.80
2019-04-21T00:17:13.146Z,7.80
2019-04-21T00:20:26.075Z,7.90
2019-04-21T00:23:33.480Z,7.90
2019-04-21T00:26:40.277Z,8.00
2019-04-21T00:29:48.235Z,8.00
2019-04-21T00:32:39.338Z,8.00
2019-04-21T00:35:39.535Z,8.10
2019-04-21T00:39:09.636Z,8.10
2019-04-21T00:41:59.871Z,8.20
2019-04-21T00:44:58.667Z,8.20
2019-04-21T00:48:05.678Z,8.20
2019-04-21T00:51:24.997Z,8.30
2019-04-21T00:54:16.975Z,8.40
2019-04-21T00:57:26.589Z,8.40
2019-04-21T01:00:22.206Z,8.40
2019-04-21T01:03:26.662Z,8.40
2019-04-21T01:06:37.611Z,8.40
2019-04-21T01:09:27.579Z,8.40
2019-04-21T01:12:43.407Z,8.40
2019-04-21T01:15:51.401Z,8.30
2019-04-21T01:18:42.640Z,8.30
2019-04-21T01:21:28.995Z,8.40
2019-04-21T01:24:34.496Z,8.40
2019-04-21T01:27:55.901Z,8.40
2019-04-21T01:30:57.287Z,8.40
2019-04-21T01:34:03.284Z,8.30
2019-04-21T01:36:59.892Z,8.30
2019-04-21T01:40:16.306Z,8.30
2019-04-21T01:43:07.634Z,8.30
2019-04-21T01:46:12.363Z,8.20
2019-04-21T01:49:10.492Z,8.20
2019-04-21T01:52:31.111Z,8.20
2019-04-21T01:55:30.792Z,8.20
2019-04-21T01:58:22.997Z,8.20
2019-04-21T02:01:37.189Z,8.20
2019-04-21T02:04:41.787Z,8.10
2019-04-21T02:07:39.265Z,8.20
2019-04-21T02:10:49.788Z,8.20
2019-04-21T02:13:56.201Z,8.30
2019-04-21T02:16:54.320Z,8.30
2019-04-21T02:19:51.745Z,8.30
2019-04-21T02:23:15.974Z,8.30
2019-04-21T02:26:03.850Z,8.30
2019-04-21T02:29:10.151Z,8.30
2019-04-21T02:32:14.402Z,8.30
2019-04-21T02:35:30.515Z,8.30
2019-04-21T02:38:34.314Z,8.30
2019-04-21T02:41:32.649Z,8.20
2019-04-21T02:44:37.637Z,8.20
2019-04-21T02:47:59.602Z,8.10
2019-04-21T02:54:04.674Z,8.10
2019-04-21T02:59:59.597Z,8.10
2019-04-21T03:02:59.144Z,8.10
2019-04-21T03:05:58.663Z,8.00
2019-04-21T03:09:12.318Z,7.90
2019-04-21T03:12:11.258Z,7.90
2019-04-21T03:15:15.969Z,7.80
2019-04-21T03:18:19.091Z,7.80
2019-04-21T03:24:18.492Z,7.80
2019-04-21T03:27:40.629Z,7.80
2019-04-21T03:30:59.570Z,7.80
2019-04-21T03:45:46.345Z,7.70
2019-04-21T03:51:59.241Z,7.80
2019-04-21T03:55:44.710Z,7.70
2019-04-21T03:58:47.437Z,7.70
2019-04-21T04:01:21.977Z,7.70
2019-04-21T04:04:53.536Z,7.70
2019-04-21T04:08:04.962Z,7.70
2019-04-21T04:11:24.802Z,7.80
2019-04-21T04:17:14.560Z,7.90
2019-04-21T04:20:11.867Z,7.90
2019-04-21T04:23:31.594Z,8.00
2019-04-21T04:26:29.083Z,8.00
2019-04-21T04:29:22.486Z,7.90
2019-04-21T04:32:23.155Z,8.00
2019-04-21T04:35:36.267Z,8.10
2019-04-21T04:45:05.890Z,8.40
2019-04-21T04:48:01.933Z,8.50
2019-04-21T04:54:17.488Z,8.50
2019-04-21T05:00:20.692Z,8.60
2019-04-21T05:09:27.092Z,8.80
2019-04-21T05:15:28.568Z,8.90
2019-04-21T05:18:47.028Z,8.90
2019-04-21T05:24:33.241Z,8.90
2019-04-21T05:27:40.013Z,8.90
2019-04-21T05:31:03.751Z,9.00
2019-04-21T05:34:12.107Z,9.20
2019-04-21T05:37:07.249Z,9.40
2019-04-21T05:40:12.290Z,9.50
2019-04-21T05:43:26.339Z,9.50
2019-04-21T05:46:25.520Z,9.60
2019-04-21T05:49:29.561Z,9.60
2019-04-21T05:52:26.545Z,9.70
2019-04-21T05:58:39.125Z,9.60
2019-04-21T06:02:05.870Z,9.60
2019-04-21T06:05:14.258Z,9.60
2019-04-21T06:07:52.445Z,9.60
2019-04-21T06:11:13.438Z,9.70
2019-04-21T06:14:02.508Z,9.80
2019-04-21T06:17:12.588Z,9.90
2019-04-21T06:20:07.964Z,10.00
2019-04-21T06:23:12.032Z,10.00
2019-04-21T06:26:27.055Z,10.20
2019-04-21T06:29:20.371Z,10.30
2019-04-21T06:32:30.385Z,10.40
2019-04-21T06:36:10.179Z,10.70
2019-04-21T06:39:01.765Z,10.80
2019-04-21T06:41:49.018Z,11.10
2019-04-21T06:45:01.901Z,11.20
2019-04-21T06:47:57.987Z,11.30
2019-04-21T06:51:04.931Z,11.40
2019-04-21T06:54:30.651Z,11.50
2019-04-21T06:57:35.737Z,11.60
2019-04-21T07:00:31.837Z,11.80
2019-04-21T07:03:38.804Z,11.90
2019-04-21T07:06:45.674Z,12.10
2019-04-21T07:09:48.405Z,12.20
2019-04-21T07:12:39.383Z,12.20
2019-04-21T07:15:53.536Z,12.40
2019-04-21T07:19:01.079Z,12.40
2019-04-21T07:21:52.455Z,12.50
2019-04-21T07:25:00.397Z,12.40
2019-04-21T07:28:05.257Z,12.50
2019-04-21T07:31:09.939Z,12.50
2019-04-21T07:34:19.702Z,12.40
2019-04-21T07:37:06.452Z,12.30
2019-04-21T07:40:10.269Z,12.30
2019-04-21T07:43:14.672Z,12.30
2019-04-21T07:46:12.959Z,12.40
2019-04-21T07:49:39.958Z,12.40
2019-04-21T07:52:48.478Z,12.60
2019-04-21T07:55:30.281Z,12.60
2019-04-21T07:58:58.392Z,12.80
2019-04-21T08:02:02.556Z,13.00
2019-04-21T08:05:09.978Z,13.30
2019-04-21T08:07:59.521Z,13.70
2019-04-21T08:11:07.390Z,13.70
2019-04-21T08:14:06.956Z,13.80
2019-04-21T08:17:14.733Z,13.70
2019-04-21T08:20:13.779Z,13.50
2019-04-21T08:23:20.308Z,13.50
2019-04-21T08:26:24.344Z,13.50
2019-04-21T08:32:36.216Z,13.50
2019-04-21T08:38:35.650Z,13.90
2019-04-21T08:41:40.768Z,14.10
2019-04-21T08:44:49.293Z,14.20
2019-04-21T08:50:58.629Z,14.10
2019-04-21T08:54:03.928Z,14.00
2019-04-21T08:57:10.112Z,14.10
2019-04-21T09:00:20.096Z,14.20
2019-04-21T09:03:35.576Z,14.50
2019-04-21T09:06:54.284Z,14.40
2019-04-21T09:09:59.323Z,14.30
2019-04-21T09:12:46.727Z,14.60
2019-04-21T09:15:47.434Z,14.80
2019-04-21T09:18:48.595Z,14.90
2019-04-21T09:22:10.808Z,15.00
2019-04-21T09:24:56.036Z,15.00
2019-04-21T09:28:02.345Z,15.20
2019-04-21T09:30:53.446Z,15.10
2019-04-21T09:33:57.341Z,15.00
2019-04-21T09:37:12.734Z,15.00
2019-04-21T09:40:01.397Z,15.10
2019-04-21T09:43:08.544Z,15.20
2019-04-21T09:46:06.609Z,15.50
2019-04-21T09:49:13.543Z,15.50
2019-04-21T09:52:18.610Z,15.20
2019-04-21T09:55:19.636Z,15.10
2019-04-21T09:58:27.335Z,14.90
2019-04-21T10:01:32.135Z,15.00
2019-04-21T10:04:26.573Z,15.40
2019-04-21T10:07:34.693Z,15.70
2019-04-21T10:10:31.938Z,16.10
2019-04-21T10:13:33.965Z,16.30
2019-04-21T10:16:46.317Z,16.10
2019-04-21T10:19:48.516Z,16.00
2019-04-21T10:22:50.949Z,16.20
2019-04-21T10:25:52.694Z,16.00
2019-04-21T10:28:58.712Z,16.00
2019-04-21T10:31:59.530Z,16.20
2019-04-21T10:35:01.158Z,16.80
2019-04-21T10:38:14.873Z,17.20
2019-04-21T10:41:05.645Z,17.30
2019-04-21T10:44:07.301Z,17.80
2019-04-21T10:47:08.853Z,17.70
2019-04-21T10:50:11.243Z,17.50
2019-04-21T10:53:14.617Z,17.30
2019-04-21T10:56:23.937Z,17.10
2019-04-21T10:59:20.527Z,17.50
2019-04-21T11:02:26.828Z,18.00
2019-04-21T11:05:28.307Z,18.20
2019-04-21T11:08:34.137Z,18.30
2019-04-21T11:11:34.153Z,17.80
2019-04-21T11:14:35.639Z,17.50
2019-04-21T11:17:37.150Z,17.80
2019-04-21T11:20:38.653Z,18.20
2019-04-21T11:23:40.514Z,18.20
2019-04-21T11:26:46.039Z,17.90
2019-04-21T11:29:47.574Z,17.70
2019-04-21T11:32:53.144Z,17.50
2019-04-21T11:35:55.168Z,17.20
2019-04-21T11:39:12.416Z,17.00
2019-04-21T11:42:03.723Z,17.40
2019-04-21T11:45:06.275Z,17.80
2019-04-21T11:48:16.629Z,17.70
2019-04-21T11:51:19.754Z,17.80
2019-04-21T11:54:21.022Z,17.70
2019-04-21T11:57:27.977Z,17.70
2019-04-21T12:00:29.474Z,18.00
2019-04-21T12:03:31.703Z,18.10
2019-04-21T12:06:40.971Z,17.80
2019-04-21T12:09:37.527Z,17.70
2019-04-21T12:12:39.281Z,17.70
2019-04-21T12:15:40.926Z,17.80
2019-04-21T12:18:42.961Z,18.20
2019-04-21T12:21:54.558Z,18.60
2019-04-21T12:24:49.007Z,18.60
2019-04-21T12:27:51.979Z,18.50
2019-04-21T12:30:55.812Z,18.20
2019-04-21T12:34:00.192Z,18.20
2019-04-21T12:37:01.778Z,18.30
2019-04-21T12:40:04.197Z,18.10
2019-04-21T12:43:06.469Z,18.20
2019-04-21T12:46:07.983Z,18.10
2019-04-21T12:49:11.914Z,17.60
2019-04-21T12:52:13.548Z,17.00
2019-04-21T12:55:15.684Z,16.60
2019-04-21T12:58:17.305Z,16.30
2019-04-21T13:01:18.949Z,16.10
2019-04-21T13:04:20.251Z,16.00
2019-04-21T13:07:22.040Z,15.40
2019-04-21T13:10:24.302Z,14.90
2019-04-21T13:13:26.305Z,14.70
2019-04-21T13:16:27.761Z,14.70
2019-04-21T13:19:29.530Z,14.60
2019-04-21T13:22:32.039Z,14.50
2019-04-21T13:25:36.016Z,14.40
2019-04-21T13:28:37.769Z,14.50
2019-04-21T13:31:40.401Z,15.00
2019-04-21T13:34:44.137Z,15.90
2019-04-21T13:37:45.835Z,17.00
2019-04-21T13:41:15.021Z,17.50
2019-04-21T13:44:13.279Z,17.70
2019-04-21T13:47:16.668Z,17.20
2019-04-21T13:50:19.348Z,17.20
2019-04-21T13:53:20.925Z,17.30
2019-04-21T13:56:22.788Z,18.30
2019-04-21T13:59:24.492Z,19.90
2019-04-21T14:02:26.816Z,19.20
2019-04-21T14:05:28.793Z,18.50
2019-04-21T14:08:31.316Z,17.90
2019-04-21T14:11:33.570Z,17.70
2019-04-21T14:14:36.608Z,18.50
2019-04-21T14:17:39.209Z,18.70
2019-04-21T14:20:40.995Z,18.10
2019-04-21T14:23:46.060Z,18.00
2019-04-21T14:26:46.218Z,17.90
2019-04-21T14:29:49.133Z,17.70
2019-04-21T14:32:51.996Z,17.60
2019-04-21T14:35:54.722Z,17.30
2019-04-21T14:38:56.767Z,17.10
2019-04-21T14:42:00.047Z,16.70
2019-04-21T14:45:03.202Z,16.60
2019-04-21T14:48:23.219Z,16.70
2019-04-21T14:51:49.206Z,16.50
2019-04-21T14:54:56.405Z,16.20
2019-04-21T14:57:59.045Z,16.30
2019-04-21T15:01:04.022Z,15.80
2019-04-21T15:04:05.944Z,15.60
2019-04-21T15:07:07.634Z,15.40
2019-04-21T15:10:15.102Z,14.90
2019-04-21T15:13:12.433Z,15.10
2019-04-21T15:16:15.063Z,15.80
2019-04-21T15:19:20.292Z,16.80
2019-04-21T15:22:21.972Z,18.10
2019-04-21T15:25:23.864Z,18.50
2019-04-21T15:28:26.291Z,19.20
2019-04-21T15:31:33.923Z,19.60
2019-04-21T15:34:31.957Z,20.10
2019-04-21T15:37:33.804Z,20.20
2019-04-21T15:40:45.716Z,21.00
2019-04-21T15:43:40.439Z,20.30
2019-04-21T15:46:42.171Z,20.70
2019-04-21T15:50:00.818Z,21.90
2019-04-21T15:52:59.710Z,22.80
2019-04-21T15:56:13.014Z,22.90
2019-04-21T15:59:30.864Z,20.70
2019-04-21T16:02:44.521Z,21.00
2019-04-21T16:05:46.752Z,20.90
2019-04-21T16:08:52.531Z,20.10
2019-04-21T16:11:53.505Z,18.50
2019-04-21T16:14:56.446Z,16.80
2019-04-21T16:17:59.368Z,15.50
2019-04-21T16:21:02.093Z,14.00
2019-04-21T16:24:04.579Z,13.50
2019-04-21T16:27:08.440Z,12.90
2019-04-21T16:30:09.997Z,12.70
2019-04-21T16:33:12.262Z,12.50
2019-04-21T16:36:15.035Z,12.10
2019-04-21T16:39:17.683Z,11.70
2019-04-21T16:42:20.317Z,11.50
2019-04-21T16:45:22.997Z,11.50
2019-04-21T16:48:25.372Z,11.40
2019-04-21T16:51:28.475Z,11.40
2019-04-21T16:54:31.535Z,11.30
2019-04-21T16:57:37.809Z,11.10
2019-04-21T17:00:47.914Z,11.10
2019-04-21T17:03:44.570Z,11.00
2019-04-21T17:06:47.136Z,11.00
2019-04-21T17:09:48.867Z,10.90
2019-04-21T17:12:51.314Z,10.70
2019-04-21T17:16:15.352Z,10.70
2019-04-21T17:19:05.307Z,10.60
2019-04-21T17:22:01.736Z,10.50
2019-04-21T17:25:06.607Z,10.50
2019-04-21T17:28:12.076Z,10.40
2019-04-21T17:31:12.842Z,10.30
2019-04-21T17:34:20.122Z,10.20
2019-04-21T17:37:23.172Z,10.20
2019-04-21T17:40:24.073Z,10.20
2019-04-21T17:43:25.827Z,10.20
2019-04-21T17:46:38.813Z,10.10
2019-04-21T17:49:32.942Z,10.10
2019-04-21T17:52:45.951Z,10.10
2019-04-21T17:55:52.971Z,10.10
2019-04-21T17:59:09.603Z,10.00
2019-04-21T18:02:08.054Z,10.00
2019-04-21T18:05:15.204Z,9.90
2019-04-21T18:08:19.068Z,9.90
2019-04-21T18:11:12.676Z,9.80
2019-04-21T18:14:07.280Z,9.70
2019-04-21T18:17:11.089Z,9.60
2019-04-21T18:20:15.150Z,9.60
2019-04-21T18:23:39.820Z,9.60
2019-04-21T18:26:40.482Z,9.50
2019-04-21T18:29:40.092Z,9.40
2019-04-21T18:32:42.649Z,9.20
2019-04-21T18:36:04.243Z,9.10
2019-04-21T18:39:40.911Z,9.00
2019-04-21T18:42:57.460Z,8.90
2019-04-21T18:46:11.505Z,8.80
2019-04-21T18:48:55.195Z,8.80
2019-04-21T18:52:20.728Z,8.80
2019-04-21T18:55:24.235Z,8.70
2019-04-21T18:58:16.367Z,8.70
2019-04-21T19:01:26.275Z,8.60
2019-04-21T19:04:28.558Z,8.60
2019-04-21T19:07:50.423Z,8.60
2019-04-21T19:10:49.028Z,8.60
2019-04-21T19:14:20.895Z,8.60
2019-04-21T19:17:42.655Z,8.60
2019-04-21T19:20:29.505Z,8.60
2019-04-21T19:23:33.805Z,8.40
2019-04-21T19:26:31.513Z,8.30
2019-04-21T19:32:33.587Z,8.00
2019-04-21T19:35:21.516Z,7.90
2019-04-21T19:38:34.995Z,7.80
2019-04-21T19:41:41.212Z,7.70
2019-04-21T19:44:47.254Z,7.60
2019-04-21T19:47:56.675Z,7.50
2019-04-21T19:50:57.834Z,7.40
2019-04-21T19:53:52.793Z,7.30
2019-04-21T19:56:44.911Z,7.30
2019-04-21T19:59:50.005Z,7.30
2019-04-21T20:02:50.425Z,7.30
2019-04-21T20:06:03.198Z,7.40
2019-04-21T20:09:19.415Z,7.50
2019-04-21T20:12:23.833Z,7.50
2019-04-21T20:15:30.339Z,7.60
2019-04-21T20:18:22.541Z,7.60
2019-04-21T20:21:16.288Z,7.70
2019-04-21T20:24:23.296Z,7.70
2019-04-21T20:27:34.952Z,7.80
2019-04-21T20:30:42.641Z,7.80
2019-04-21T20:36:59.637Z,8.00
2019-04-21T20:39:46.107Z,8.00
2019-04-21T20:42:52.621Z,8.00
2019-04-21T20:46:03.851Z,8.10
2019-04-21T20:48:59.933Z,8.10
2019-04-21T20:52:14.106Z,8.10
2019-04-21T20:55:07.256Z,8.00
2019-04-21T20:58:06.880Z,8.00
2019-04-21T21:04:19.157Z,8.00
2019-04-21T21:07:40.504Z,8.00
2019-04-21T21:10:29.767Z,8.00
2019-04-21T21:13:41.323Z,8.00
2019-04-21T21:16:41.901Z,8.00
2019-04-21T21:19:45.701Z,8.00
2019-04-21T21:22:42.359Z,8.00
2019-04-21T21:25:51.009Z,8.00
2019-04-21T21:28:42.924Z,8.00
2019-04-21T21:31:59.567Z,8.00
2019-04-21T21:35:01.471Z,8.00
2019-04-21T21:38:06.689Z,8.00
2019-04-21T21:40:57.067Z,8.00
2019-04-21T21:44:00.565Z,8.10
2019-04-21T21:47:06.467Z,8.10
2019-04-21T21:50:07.656Z,8.10
2019-04-21T21:53:08.618Z,8.00
2019-04-21T21:56:06.814Z,8.00
2019-04-21T21:59:15.088Z,8.00
2019-04-21T22:02:17.203Z,8.00
2019-04-21T22:05:22.033Z,8.00
2019-04-21T22:08:20.698Z,8.10
2019-04-21T22:11:24.043Z,8.10
2019-04-21T22:14:34.034Z,8.20
2019-04-21T22:17:42.860Z,8.20
2019-04-21T22:20:47.509Z,8.20
2019-04-21T22:23:47.822Z,8.30
2019-04-21T22:26:41.056Z,8.30
2019-04-21T22:29:48.207Z,8.20
2019-04-21T22:32:53.719Z,8.20
2019-04-21T22:35:56.447Z,8.20
2019-04-21T22:39:13.354Z,8.10
2019-04-21T22:42:05.825Z,8.10
2019-04-21T22:45:00.710Z,8.00
2019-04-21T22:48:07.505Z,8.00
2019-04-21T22:51:10.555Z,8.00
2019-04-21T22:54:12.790Z,8.00
2019-04-21T22:57:18.346Z,8.00
2019-04-21T23:00:19.167Z,8.00
2019-04-21T23:03:26.352Z,8.00
2019-04-21T23:06:30.846Z,8.00
2019-04-21T23:09:29.228Z,8.00
2019-04-21T23:12:34.599Z,8.00
2019-04-21T23:15:42.021Z,8.00
2019-04-21T23:18:53.343Z,8.00
2019-04-21T23:21:58.051Z,8.00
2019-04-21T23:25:03.732Z,7.90
2019-04-21T23:28:09.079Z,7.90
2019-04-21T23:31:11.177Z,7.90
2019-04-21T23:33:55.283Z,7.80
2019-04-21T23:37:03.254Z,7.80
2019-04-21T23:40:07.561Z,7.70
2019-04-21T23:43:09.513Z,7.70
2019-04-21T23:46:10.415Z,7.70
2019-04-21T23:49:22.887Z,7.70
2019-04-21T23:52:16.116Z,7.70
2019-04-21T23:55:17.148Z,7.70
2019-04-21T23:58:25.171Z,7.70
